Time;durP1;ratioP1;P1;durP2;ratioP2;P2;SDS_P1;SDS_P2;PMS_P1;PMS_P2;Temp;Humidity;BMP_temperature;BMP_pressure;BME280_temperature;BME280_humidity;BME280_pressure;Samples;Min_cycle;Max_cycle;Signal;HPM_P1;HPM_P2
2022/01/20 00:00:21;;;;;;;6.50;3.78;;;;;;;;;;4953737;28;20019;-86
2022/01/20 00:02:55;;;;;;;6.80;3.78;;;;;;;;;;4951252;28;20038;-87
2022/01/20 00:08:27;;;;;;;4.90;3.13;;;;;;;;;;4955621;28;20102;-85
2022/01/20 00:27:23;;;;;;;4.50;3.05;;;;;;;;;;4953437;28;20078;-86
2022/01/20 00:32:57;;;;;;;3.42;2.45;;;;;;;;;;4951291;28;20016;-86
2022/01/20 00:35:30;;;;;;;5.45;2.67;;;;;;;;;;4952748;28;20075;-88
2022/01/20 00:37:55;;;;;;;4.32;2.67;;;;;;;;;;4956150;28;20043;-86
2022/01/20 00:40:23;;;;;;;4.38;2.85;;;;;;;;;;4951910;28;20645;-86
2022/01/20 00:42:49;;;;;;;4.85;3.30;;;;;;;;;;4936482;28;20034;-81
2022/01/20 00:45:15;;;;;;;5.15;2.83;;;;;;;;;;4953520;28;20020;-87
2022/01/20 00:48:06;;;;;;;5.47;2.90;;;;;;;;;;4953410;28;20496;-86
2022/01/20 00:50:35;;;;;;;3.33;2.63;;;;;;;;;;4939514;29;20036;-86
2022/01/20 00:53:00;;;;;;;4.50;2.88;;;;;;;;;;4953279;28;20034;-86
2022/01/20 00:55:26;;;;;;;3.33;2.85;;;;;;;;;;4955057;28;20374;-85
2022/01/20 00:57:51;;;;;;;6.10;3.60;;;;;;;;;;4954086;28;20038;-87
2022/01/20 01:00:17;;;;;;;3.72;2.88;;;;;;;;;;4952059;28;20031;-87
2022/01/20 01:02:42;;;;;;;4.53;3.03;;;;;;;;;;4937674;28;20030;-87
2022/01/20 01:05:12;;;;;;;4.38;2.95;;;;;;;;;;4957863;28;20070;-87
2022/01/20 01:07:46;;;;;;;3.92;2.85;;;;;;;;;;4939094;29;20031;-84
2022/01/20 01:10:21;;;;;;;5.38;2.97;;;;;;;;;;4949754;28;20047;-88
2022/01/20 01:12:52;;;;;;;3.40;2.58;;;;;;;;;;4961705;28;20015;-88
2022/01/20 01:15:25;;;;;;;3.95;2.60;;;;;;;;;;4957853;28;20031;-87
2022/01/20 01:23:20;;;;;;;6.50;2.38;;;;;;;;;;4959031;28;20037;-86
2022/01/20 01:25:45;;;;;;;3.13;2.45;;;;;;;;;;4957404;28;20110;-89
2022/01/20 01:28:11;;;;;;;3.30;2.30;;;;;;;;;;4945221;29;20110;-87
2022/01/20 01:31:09;;;;;;;4.07;2.78;;;;;;;;;;4955839;28;20543;-88
2022/01/20 01:33:34;;;;;;;3.22;2.20;;;;;;;;;;4968545;28;20409;-87
2022/01/20 01:36:03;;;;;;;4.38;2.22;;;;;;;;;;4951580;28;20027;-88
2022/01/20 01:38:38;;;;;;;3.38;2.33;;;;;;;;;;4977252;28;20088;-88
2022/01/20 01:41:11;;;;;;;4.20;2.60;;;;;;;;;;4976852;28;20123;-87
2022/01/20 01:43:40;;;;;;;2.22;2.00;;;;;;;;;;4959014;28;20074;-86
2022/01/20 01:46:05;;;;;;;3.58;2.40;;;;;;;;;;4959207;28;20049;-86
2022/01/20 01:48:31;;;;;;;2.95;2.13;;;;;;;;;;4977873;28;20023;-86
2022/01/20 01:50:59;;;;;;;3.63;1.85;;;;;;;;;;4977872;28;20026;-87
2022/01/20 01:53:25;;;;;;;2.83;2.10;;;;;;;;;;4960424;28;20408;-84
2022/01/20 01:55:50;;;;;;;4.07;2.00;;;;;;;;;;4966705;28;20485;-87
2022/01/20 02:01:31;;;;;;;2.35;1.63;;;;;;;;;;4929919;28;20038;-86
2022/01/20 02:03:59;;;;;;;5.45;1.75;;;;;;;;;;4958728;28;20034;-86
2022/01/20 02:19:59;;;;;;;1.80;1.70;;;;;;;;;;4979876;28;20057;-87
2022/01/20 02:22:25;;;;;;;3.33;1.70;;;;;;;;;;4979308;28;20030;-90
2022/01/20 02:24:50;;;;;;;3.00;1.60;;;;;;;;;;4979192;28;20437;-87
2022/01/20 02:27:16;;;;;;;2.22;1.60;;;;;;;;;;4979689;28;20031;-88
2022/01/20 02:29:44;;;;;;;3.15;1.48;;;;;;;;;;4979173;28;20038;-89
2022/01/20 02:32:09;;;;;;;2.28;1.52;;;;;;;;;;4962765;28;20109;-89
2022/01/20 02:34:35;;;;;;;2.15;1.50;;;;;;;;;;4978326;28;20031;-86
2022/01/20 02:37:03;;;;;;;2.35;1.70;;;;;;;;;;4978215;28;20133;-87
2022/01/20 02:45:03;;;;;;;1.90;1.70;;;;;;;;;;4974016;28;20130;-85
2022/01/20 02:47:33;;;;;;;1.67;1.58;;;;;;;;;;4970253;28;20026;-87
2022/01/20 02:49:59;;;;;;;2.15;1.90;;;;;;;;;;4974959;28;20125;-84
2022/01/20 02:52:26;;;;;;;3.33;2.15;;;;;;;;;;4976715;28;20590;-87
2022/01/20 02:54:54;;;;;;;2.08;1.88;;;;;;;;;;4976041;28;20023;-86
2022/01/20 02:57:20;;;;;;;3.45;2.00;;;;;;;;;;4962996;28;20027;-87
2022/01/20 02:59:45;;;;;;;2.00;1.80;;;;;;;;;;4956136;28;20026;-85
2022/01/20 03:02:11;;;;;;;2.70;1.92;;;;;;;;;;4965199;28;20015;-87
2022/01/20 03:04:38;;;;;;;3.60;2.10;;;;;;;;;;4985092;28;20022;-87
2022/01/20 03:07:04;;;;;;;2.97;2.20;;;;;;;;;;4943222;29;20019;-87
2022/01/20 03:09:30;;;;;;;1.92;1.63;;;;;;;;;;4970261;28;20022;-87
2022/01/20 03:11:55;;;;;;;2.63;2.38;;;;;;;;;;4964492;28;20082;-88
2022/01/20 03:14:21;;;;;;;3.78;1.80;;;;;;;;;;4938619;28;20051;-86
2022/01/20 03:16:47;;;;;;;1.00;1.00;;;;;;;;;;4967927;28;20502;-85
2022/01/20 03:19:13;;;;;;;2.20;1.90;;;;;;;;;;4957059;28;20019;-86
2022/01/20 03:21:40;;;;;;;2.65;2.20;;;;;;;;;;4965422;29;20572;-88
2022/01/20 03:24:07;;;;;;;2.63;2.03;;;;;;;;;;4941982;29;20027;-87
2022/01/20 03:26:33;;;;;;;2.70;2.25;;;;;;;;;;4958606;28;20074;-87
2022/01/20 03:28:59;;;;;;;1.65;1.55;;;;;;;;;;4975988;28;20061;-88
2022/01/20 03:31:26;;;;;;;2.58;2.17;;;;;;;;;;4970273;28;20030;-88
2022/01/20 03:33:51;;;;;;;2.47;2.10;;;;;;;;;;4967226;28;20066;-87
2022/01/20 03:36:17;;;;;;;2.58;2.08;;;;;;;;;;4946037;29;20019;-85
2022/01/20 03:38:42;;;;;;;3.20;2.40;;;;;;;;;;4955994;28;20031;-86
2022/01/20 03:41:08;;;;;;;2.13;1.85;;;;;;;;;;4951996;28;20027;-86
2022/01/20 03:43:33;;;;;;;2.17;1.95;;;;;;;;;;4960958;28;20089;-88
2022/01/20 03:46:00;;;;;;;2.95;2.15;;;;;;;;;;4967592;28;20110;-87
2022/01/20 03:48:28;;;;;;;2.30;2.10;;;;;;;;;;4959845;28;20026;-84
2022/01/20 03:50:59;;;;;;;2.60;2.28;;;;;;;;;;4978391;28;20085;-89
2022/01/20 03:53:26;;;;;;;2.65;2.05;;;;;;;;;;4976788;28;20027;-87
2022/01/20 03:55:52;;;;;;;3.78;2.13;;;;;;;;;;4977763;28;20026;-87
2022/01/20 03:58:17;;;;;;;2.58;2.38;;;;;;;;;;4978276;28;20105;-89
2022/01/20 04:00:43;;;;;;;3.53;2.80;;;;;;;;;;4956306;29;20470;-87
2022/01/20 04:03:13;;;;;;;3.38;2.30;;;;;;;;;;4969432;28;20030;-88
2022/01/20 04:05:52;;;;;;;2.28;1.83;;;;;;;;;;4978068;28;20496;-87
2022/01/20 04:08:18;;;;;;;2.78;2.38;;;;;;;;;;4977856;28;20030;-89
2022/01/20 04:10:43;;;;;;;2.83;2.25;;;;;;;;;;4977405;28;20126;-87
2022/01/20 04:13:10;;;;;;;2.97;2.53;;;;;;;;;;4968357;28;20688;-88
2022/01/20 04:15:38;;;;;;;2.72;2.38;;;;;;;;;;4968666;28;20185;-88
2022/01/20 04:18:07;;;;;;;4.13;2.58;;;;;;;;;;4975051;28;20456;-87
2022/01/20 04:20:32;;;;;;;3.75;2.60;;;;;;;;;;4976565;28;20026;-87
2022/01/20 04:22:57;;;;;;;3.78;2.25;;;;;;;;;;4953365;28;20030;-85
2022/01/20 04:25:23;;;;;;;4.50;2.42;;;;;;;;;;4974493;28;20557;-88
2022/01/20 04:27:48;;;;;;;3.25;2.55;;;;;;;;;;4960359;28;20035;-87
2022/01/20 04:30:14;;;;;;;2.72;2.33;;;;;;;;;;4957206;29;20078;-88
2022/01/20 04:32:39;;;;;;;3.15;2.55;;;;;;;;;;4964481;28;20458;-88
2022/01/20 04:35:04;;;;;;;3.60;2.70;;;;;;;;;;4966942;28;20058;-86
2022/01/20 04:37:30;;;;;;;4.40;3.17;;;;;;;;;;4977674;28;20409;-88
2022/01/20 04:39:56;;;;;;;3.80;2.50;;;;;;;;;;4978668;28;20497;-88
2022/01/20 04:42:24;;;;;;;5.30;2.67;;;;;;;;;;4941593;29;20028;-88
2022/01/20 04:44:56;;;;;;;3.33;2.80;;;;;;;;;;4973208;28;20050;-88
2022/01/20 04:47:34;;;;;;;3.90;2.90;;;;;;;;;;4972697;28;20457;-87
2022/01/20 04:58:12;;;;;;;5.80;3.10;;;;;;;;;;4961753;28;20034;-88
2022/01/20 05:00:38;;;;;;;3.33;2.83;;;;;;;;;;4944831;29;20039;-88
2022/01/20 05:03:05;;;;;;;4.88;2.80;;;;;;;;;;4961708;28;20041;-88
2022/01/20 05:05:31;;;;;;;4.43;2.78;;;;;;;;;;4968187;28;20055;-86
2022/01/20 05:07:58;;;;;;;3.97;2.85;;;;;;;;;;4947753;29;20035;-88
2022/01/20 05:10:23;;;;;;;6.65;2.75;;;;;;;;;;4965412;28;20027;-88
2022/01/20 05:15:17;;;;;;;5.75;3.17;;;;;;;;;;4976633;28;20462;-87
2022/01/20 05:17:43;;;;;;;4.97;3.00;;;;;;;;;;4984655;28;20098;-86
2022/01/20 05:20:09;;;;;;;5.60;3.25;;;;;;;;;;4989473;28;20058;-87
2022/01/20 05:22:34;;;;;;;6.55;3.17;;;;;;;;;;4972345;28;20145;-85
2022/01/20 05:25:00;;;;;;;5.82;3.10;;;;;;;;;;4995770;28;20035;-83
2022/01/20 05:27:25;;;;;;;6.15;3.58;;;;;;;;;;4975645;28;20026;-85
2022/01/20 05:29:51;;;;;;;5.65;3.42;;;;;;;;;;4999602;28;20014;-85
2022/01/20 05:32:16;;;;;;;7.97;3.70;;;;;;;;;;4989143;28;20023;-85
2022/01/20 05:34:41;;;;;;;2.92;2.50;;;;;;;;;;4988028;28;20125;-87
2022/01/20 05:37:07;;;;;;;4.50;3.03;;;;;;;;;;4973551;28;20038;-88
2022/01/20 05:39:32;;;;;;;3.20;2.30;;;;;;;;;;4960362;28;20079;-86
2022/01/20 05:41:57;;;;;;;4.78;3.10;;;;;;;;;;4963926;28;20417;-88
2022/01/20 05:44:23;;;;;;;7.13;2.90;;;;;;;;;;4956696;28;20070;-88
2022/01/20 05:46:50;;;;;;;4.18;3.38;;;;;;;;;;4945537;29;20091;-86
2022/01/20 05:49:20;;;;;;;4.20;3.05;;;;;;;;;;4936089;29;20122;-85
2022/01/20 05:51:47;;;;;;;5.10;3.50;;;;;;;;;;4948762;28;20027;-87
2022/01/20 05:54:13;;;;;;;3.30;2.97;;;;;;;;;;4937722;29;20082;-85
2022/01/20 05:56:38;;;;;;;7.05;3.90;;;;;;;;;;4938244;29;20027;-87
2022/01/20 05:59:04;;;;;;;5.35;3.13;;;;;;;;;;4940309;29;20050;-85
2022/01/20 06:01:32;;;;;;;5.43;3.28;;;;;;;;;;4955910;28;20105;-86
2022/01/20 06:03:57;;;;;;;8.15;3.35;;;;;;;;;;4970096;28;20398;-84
2022/01/20 06:06:23;;;;;;;5.53;2.95;;;;;;;;;;4963879;28;20493;-88
2022/01/20 06:08:48;;;;;;;4.30;3.60;;;;;;;;;;4958570;29;20035;-85
2022/01/20 06:11:14;;;;;;;6.07;3.92;;;;;;;;;;4959859;29;20105;-85
2022/01/20 06:13:40;;;;;;;6.90;3.92;;;;;;;;;;4959167;28;20500;-85
2022/01/20 06:16:05;;;;;;;6.82;3.50;;;;;;;;;;4967289;28;20034;-85
2022/01/20 06:18:31;;;;;;;7.70;4.30;;;;;;;;;;4960359;28;20066;-84
2022/01/20 06:20:57;;;;;;;8.50;4.38;;;;;;;;;;4959505;29;20118;-85
2022/01/20 06:23:23;;;;;;;10.52;4.35;;;;;;;;;;4958990;29;20062;-84
2022/01/20 06:25:49;;;;;;;7.82;4.45;;;;;;;;;;4959523;29;20039;-84
2022/01/20 06:28:16;;;;;;;7.72;4.13;;;;;;;;;;4942006;29;20103;-85
2022/01/20 06:30:41;;;;;;;7.07;4.15;;;;;;;;;;4959007;29;20427;-84
2022/01/20 06:33:07;;;;;;;7.57;4.55;;;;;;;;;;4977312;28;20019;-84
2022/01/20 06:35:33;;;;;;;7.07;5.05;;;;;;;;;;4983988;28;20492;-86
2022/01/20 06:37:59;;;;;;;8.98;4.38;;;;;;;;;;4960700;28;20027;-87
2022/01/20 06:40:24;;;;;;;8.30;4.88;;;;;;;;;;4977244;28;20113;-87
2022/01/20 06:42:50;;;;;;;9.35;4.85;;;;;;;;;;4946449;29;20028;-86
2022/01/20 06:45:17;;;;;;;6.75;4.50;;;;;;;;;;4958460;28;20035;-87
2022/01/20 06:47:43;;;;;;;10.18;4.25;;;;;;;;;;4958263;28;20522;-87
2022/01/20 06:50:11;;;;;;;7.60;4.85;;;;;;;;;;4941141;28;20074;-86
2022/01/20 06:52:37;;;;;;;6.82;4.80;;;;;;;;;;4948739;29;20061;-82
2022/01/20 06:55:05;;;;;;;7.47;4.38;;;;;;;;;;4957944;28;20108;-84
2022/01/20 06:57:35;;;;;;;8.10;4.38;;;;;;;;;;4959126;29;20033;-84
2022/01/20 07:00:03;;;;;;;7.97;3.88;;;;;;;;;;4958484;28;20028;-86
2022/01/20 07:02:28;;;;;;;5.68;4.43;;;;;;;;;;4960869;28;20626;-85
2022/01/20 07:04:53;;;;;;;6.38;4.10;;;;;;;;;;4969911;28;20062;-87
2022/01/20 07:07:19;;;;;;;9.73;4.60;;;;;;;;;;4964161;28;20033;-85
2022/01/20 07:09:45;;;;;;;6.50;4.28;;;;;;;;;;4965405;28;20121;-86
2022/01/20 07:12:10;;;;;;;7.45;3.97;;;;;;;;;;4939703;28;20136;-84
2022/01/20 07:14:37;;;;;;;5.30;3.50;;;;;;;;;;4949864;28;20401;-85
2022/01/20 07:17:02;;;;;;;5.95;3.28;;;;;;;;;;4957616;28;20031;-87
2022/01/20 07:19:28;;;;;;;11.48;3.80;;;;;;;;;;4956214;29;20038;-87
2022/01/20 07:21:53;;;;;;;9.35;3.58;;;;;;;;;;4955248;28;20035;-88
2022/01/20 07:24:18;;;;;;;7.57;4.10;;;;;;;;;;4968962;28;20107;-86
2022/01/20 07:26:44;;;;;;;5.65;3.53;;;;;;;;;;4960771;28;20138;-86
2022/01/20 07:29:09;;;;;;;3.67;2.67;;;;;;;;;;4957350;28;20038;-86
2022/01/20 07:31:35;;;;;;;3.90;2.85;;;;;;;;;;4970256;28;20480;-87
2022/01/20 07:34:01;;;;;;;4.10;2.65;;;;;;;;;;4969374;28;20031;-84
2022/01/20 07:36:26;;;;;;;9.88;3.40;;;;;;;;;;4962055;29;20580;-84
2022/01/20 07:38:52;;;;;;;4.80;3.22;;;;;;;;;;4971123;29;20031;-82
2022/01/20 07:41:17;;;;;;;8.73;3.10;;;;;;;;;;4953766;29;20035;-87
2022/01/20 07:43:43;;;;;;;12.00;3.45;;;;;;;;;;4944104;29;20114;-85
2022/01/20 07:46:08;;;;;;;8.98;3.58;;;;;;;;;;4960660;28;20035;-87
2022/01/20 07:48:34;;;;;;;6.82;3.67;;;;;;;;;;4973881;28;20070;-87
2022/01/20 07:51:00;;;;;;;7.75;3.60;;;;;;;;;;4978996;28;20030;-86
2022/01/20 07:53:26;;;;;;;8.02;3.45;;;;;;;;;;4978578;28;20027;-86
2022/01/20 07:55:52;;;;;;;7.28;2.97;;;;;;;;;;4961348;28;20108;-84
2022/01/20 07:58:17;;;;;;;5.25;3.13;;;;;;;;;;4967471;28;20546;-84
2022/01/20 08:00:43;;;;;;;8.88;3.35;;;;;;;;;;4958349;29;20054;-85
2022/01/20 08:03:08;;;;;;;7.80;3.13;;;;;;;;;;4969023;28;20540;-87
2022/01/20 08:05:33;;;;;;;12.15;3.85;;;;;;;;;;4976911;28;20022;-86
2022/01/20 08:07:59;;;;;;;7.50;3.00;;;;;;;;;;4978145;28;20062;-86
2022/01/20 08:10:24;;;;;;;7.03;2.90;;;;;;;;;;4966677;28;20027;-86
2022/01/20 08:12:50;;;;;;;8.45;3.47;;;;;;;;;;4952666;28;20026;-83
2022/01/20 08:15:15;;;;;;;7.60;3.50;;;;;;;;;;4964936;28;20102;-85
2022/01/20 08:17:42;;;;;;;5.70;2.78;;;;;;;;;;4958820;28;20028;-84
2022/01/20 08:20:08;;;;;;;5.60;2.72;;;;;;;;;;4959869;28;20082;-86
2022/01/20 08:22:34;;;;;;;6.70;3.45;;;;;;;;;;4960054;28;20027;-86
2022/01/20 08:25:05;;;;;;;10.25;3.38;;;;;;;;;;4977497;28;20031;-86
2022/01/20 08:27:30;;;;;;;5.80;3.00;;;;;;;;;;4949091;28;20503;-87
2022/01/20 08:29:55;;;;;;;8.25;3.97;;;;;;;;;;4968748;28;20023;-85
2022/01/20 08:32:21;;;;;;;7.75;3.20;;;;;;;;;;4964748;28;20058;-87
2022/01/20 08:34:46;;;;;;;7.03;3.08;;;;;;;;;;4960173;28;20541;-86
2022/01/20 08:37:12;;;;;;;10.13;2.63;;;;;;;;;;4950964;28;20023;-84
2022/01/20 08:42:06;;;;;;;8.52;3.30;;;;;;;;;;4953830;28;20031;-85
2022/01/20 08:44:32;;;;;;;6.47;2.75;;;;;;;;;;4935379;29;20486;-86
2022/01/20 08:46:58;;;;;;;10.63;3.42;;;;;;;;;;4961478;28;20023;-85
2022/01/20 08:49:24;;;;;;;9.50;4.00;;;;;;;;;;4956587;29;20102;-86
2022/01/20 08:51:51;;;;;;;9.38;3.15;;;;;;;;;;4956618;28;20038;-85
2022/01/20 08:54:17;;;;;;;11.05;3.83;;;;;;;;;;4955751;28;20078;-83
2022/01/20 08:56:43;;;;;;;9.65;3.30;;;;;;;;;;4956270;28;20437;-86
2022/01/20 08:59:10;;;;;;;13.32;3.53;;;;;;;;;;4958459;28;20087;-85
2022/01/20 09:01:37;;;;;;;9.80;3.50;;;;;;;;;;4946348;28;20041;-85
2022/01/20 09:04:03;;;;;;;10.63;3.13;;;;;;;;;;4968396;28;20030;-86
2022/01/20 09:06:29;;;;;;;6.18;3.30;;;;;;;;;;4976613;28;20023;-85
2022/01/20 09:08:54;;;;;;;6.75;3.40;;;;;;;;;;4958881;28;20023;-85
2022/01/20 09:11:23;;;;;;;9.80;3.45;;;;;;;;;;4952269;29;20100;-85
2022/01/20 09:16:35;;;;;;;7.68;3.08;;;;;;;;;;4965108;28;20564;-84
2022/01/20 09:19:01;;;;;;;8.27;3.72;;;;;;;;;;4939635;29;20027;-85
2022/01/20 09:21:28;;;;;;;10.60;3.13;;;;;;;;;;4955221;28;20019;-84
2022/01/20 09:23:54;;;;;;;8.00;2.47;;;;;;;;;;4972542;28;20026;-86
2022/01/20 09:26:19;;;;;;;5.72;3.20;;;;;;;;;;4943224;29;20351;-85
2022/01/20 09:28:44;;;;;;;8.35;3.17;;;;;;;;;;4960483;29;20099;-84
2022/01/20 09:31:10;;;;;;;7.15;3.13;;;;;;;;;;4963426;28;20042;-87
2022/01/20 09:33:35;;;;;;;5.35;2.80;;;;;;;;;;4971813;28;20472;-85
2022/01/20 09:36:07;;;;;;;11.13;4.15;;;;;;;;;;4965898;28;20030;-84
2022/01/20 09:38:33;;;;;;;9.43;3.05;;;;;;;;;;4950116;28;20034;-84
2022/01/20 09:40:58;;;;;;;8.43;3.38;;;;;;;;;;4980409;28;20090;-87
2022/01/20 09:43:24;;;;;;;10.38;2.75;;;;;;;;;;4948181;29;20042;-86
2022/01/20 09:45:54;;;;;;;6.30;3.20;;;;;;;;;;4965660;28;20151;-86
2022/01/20 09:48:24;;;;;;;13.18;3.60;;;;;;;;;;4966206;28;20030;-86
2022/01/20 09:50:51;;;;;;;8.57;2.28;;;;;;;;;;4949271;28;20277;-82
2022/01/20 09:53:16;;;;;;;6.90;3.05;;;;;;;;;;4964264;29;20078;-85
2022/01/20 09:55:42;;;;;;;7.95;2.70;;;;;;;;;;4947413;29;20058;-85
2022/01/20 09:58:09;;;;;;;6.15;2.13;;;;;;;;;;4947662;29;20023;-85
2022/01/20 10:00:35;;;;;;;5.93;2.97;;;;;;;;;;4972287;29;20031;-86
2022/01/20 10:03:08;;;;;;;9.75;3.30;;;;;;;;;;4971523;28;20034;-85
2022/01/20 10:05:35;;;;;;;4.88;2.58;;;;;;;;;;4983582;28;20033;-87
2022/01/20 10:08:21;;;;;;;5.35;2.08;;;;;;;;;;4983382;28;20101;-85
2022/01/20 10:10:55;;;;;;;14.25;3.90;;;;;;;;;;4979818;28;20029;-84
2022/01/20 10:13:25;;;;;;;10.88;3.92;;;;;;;;;;4961418;28;20020;-87
2022/01/20 11:28:34;;;;;;;11.73;3.42;;;;;;;;;;5015689;28;20062;-87
2022/01/20 11:31:08;;;;;;;10.32;3.35;;;;;;;;;;5016046;28;20026;-85
2022/01/20 11:33:48;;;;;;;6.93;2.20;;;;;;;;;;5017785;28;20501;-87
2022/01/20 11:36:29;;;;;;;4.90;2.60;;;;;;;;;;5020942;28;20399;-87
2022/01/20 11:39:08;;;;;;;8.23;3.22;;;;;;;;;;5000536;28;20041;-86
2022/01/20 11:41:43;;;;;;;8.32;2.78;;;;;;;;;;5020846;28;20045;-87
2022/01/20 11:44:32;;;;;;;12.30;3.00;;;;;;;;;;5022265;28;20080;-86
2022/01/20 11:48:10;;;;;;;5.28;2.20;;;;;;;;;;4985886;28;20033;-86
2022/01/20 11:51:17;;;;;;;9.18;2.30;;;;;;;;;;4922942;29;20084;-87
2022/01/20 11:54:07;;;;;;;10.25;2.95;;;;;;;;;;4970507;28;20019;-86
2022/01/20 11:56:42;;;;;;;11.23;2.70;;;;;;;;;;4937066;29;20050;-86
2022/01/20 11:59:14;;;;;;;15.95;3.53;;;;;;;;;;4931105;29;20032;-87
2022/01/20 12:01:47;;;;;;;;;;;;;;;;;;4940224;29;20063;-84
2022/01/20 12:04:16;;;;;;;2.63;1.90;;;;;;;;;;4938916;29;20001;-87
2022/01/20 12:06:44;;;;;;;12.82;3.08;;;;;;;;;;4940823;29;20095;-87
2022/01/20 12:09:37;;;;;;;5.35;2.50;;;;;;;;;;4966225;28;20095;-86
2022/01/20 12:12:26;;;;;;;1.10;1.10;;;;;;;;;;4922885;29;20031;-87
2022/01/20 12:22:26;;;;;;;0.80;0.77;;;;;;;;;;4901161;29;20476;-86
2022/01/20 13:26:43;;;;;;;15.02;3.25;;;;;;;;;;5009285;28;20411;-87
2022/01/20 13:29:44;;;;;;;8.98;2.97;;;;;;;;;;4992456;28;20033;-87
2022/01/20 13:32:48;;;;;;;8.60;2.10;;;;;;;;;;4955950;28;20056;-88
2022/01/20 13:35:59;;;;;;;9.20;2.67;;;;;;;;;;4909345;29;20036;-86
2022/01/20 13:39:12;;;;;;;10.15;2.95;;;;;;;;;;4982113;28;20035;-89
2022/01/20 13:48:38;;;;;;;4.72;2.10;;;;;;;;;;5002002;28;20041;-87
2022/01/20 13:51:07;;;;;;;7.25;2.83;;;;;;;;;;5001251;28;20038;-87
2022/01/20 13:53:35;;;;;;;5.05;2.60;;;;;;;;;;5018346;28;20014;-88
2022/01/20 13:56:09;;;;;;;8.85;2.80;;;;;;;;;;5015089;28;20579;-87
2022/01/20 13:58:38;;;;;;;9.15;2.95;;;;;;;;;;5009663;28;20023;-86
2022/01/20 14:01:09;;;;;;;4.03;2.67;;;;;;;;;;5005741;28;20034;-89
2022/01/20 14:03:40;;;;;;;6.93;2.55;;;;;;;;;;4985632;28;20026;-87
2022/01/20 14:06:06;;;;;;;9.03;3.23;;;;;;;;;;5014680;28;20033;-87
2022/01/20 14:08:48;;;;;;;6.15;2.72;;;;;;;;;;5002791;28;20275;-87
2022/01/20 14:11:17;;;;;;;8.20;3.28;;;;;;;;;;4981873;28;20057;-87
2022/01/20 14:13:45;;;;;;;16.88;3.38;;;;;;;;;;4976735;28;20026;-88
2022/01/20 14:16:14;;;;;;;4.20;2.40;;;;;;;;;;5004111;28;20113;-87
2022/01/20 14:18:51;;;;;;;7.85;2.90;;;;;;;;;;5002681;28;20026;-86
2022/01/20 14:25:32;;;;;;;5.68;2.90;;;;;;;;;;4990388;28;20437;-88
2022/01/20 14:28:24;;;;;;;5.55;2.55;;;;;;;;;;4988191;28;20060;-88
2022/01/20 14:30:50;;;;;;;6.93;2.47;;;;;;;;;;4989263;28;20026;-86
2022/01/20 14:33:16;;;;;;;7.10;2.80;;;;;;;;;;4986936;28;20021;-88
2022/01/20 14:35:42;;;;;;;10.15;3.03;;;;;;;;;;4997024;28;20396;-87
2022/01/20 14:38:13;;;;;;;6.82;2.70;;;;;;;;;;4987368;28;20495;-89
2022/01/20 14:40:38;;;;;;;13.20;3.45;;;;;;;;;;4998544;28;20030;-88
2022/01/20 14:43:04;;;;;;;11.40;3.50;;;;;;;;;;5002509;28;20114;-87
2022/01/20 14:45:35;;;;;;;5.78;3.10;;;;;;;;;;5016023;28;20048;-87
2022/01/20 14:48:04;;;;;;;8.68;3.00;;;;;;;;;;5008978;28;20037;-89
2022/01/20 14:50:29;;;;;;;5.68;3.50;;;;;;;;;;4997519;28;20022;-88
2022/01/20 14:52:56;;;;;;;13.77;3.83;;;;;;;;;;4974383;28;20030;-87
2022/01/20 14:55:23;;;;;;;7.80;2.70;;;;;;;;;;4983025;28;20477;-88
2022/01/20 14:58:04;;;;;;;10.43;3.03;;;;;;;;;;4999409;28;20475;-88
2022/01/20 15:00:37;;;;;;;12.82;3.38;;;;;;;;;;4983901;28;20503;-88
2022/01/20 15:03:17;;;;;;;10.63;3.92;;;;;;;;;;4986750;28;20594;-87
2022/01/20 15:05:47;;;;;;;6.45;3.08;;;;;;;;;;4986256;28;20077;-86
2022/01/20 15:08:13;;;;;;;11.13;3.22;;;;;;;;;;5002718;28;20030;-88
2022/01/20 15:10:38;;;;;;;5.78;2.28;;;;;;;;;;4985502;28;20428;-87
2022/01/20 15:13:04;;;;;;;11.52;3.08;;;;;;;;;;4987877;28;20082;-88
2022/01/20 15:15:30;;;;;;;13.02;3.70;;;;;;;;;;4987863;28;20026;-88
2022/01/20 15:17:56;;;;;;;12.80;3.42;;;;;;;;;;5003472;28;20021;-86
2022/01/20 15:20:32;;;;;;;7.25;2.63;;;;;;;;;;4991724;28;20050;-87
2022/01/20 15:23:13;;;;;;;11.85;2.20;;;;;;;;;;4979553;28;20018;-87
2022/01/20 15:26:06;;;;;;;;;;;;;;;;;;;;;
2022/01/20 15:28:46;;;;;;;6.07;3.25;;;;;;;;;;5022798;28;20100;-86
2022/01/20 15:31:20;;;;;;;7.70;2.80;;;;;;;;;;5020134;28;20102;-86
2022/01/20 15:33:46;;;;;;;5.65;2.72;;;;;;;;;;5012553;28;20531;-87
2022/01/20 15:36:13;;;;;;;1.50;1.40;;;;;;;;;;5005107;28;20033;-85
2022/01/20 15:38:38;;;;;;;7.13;2.42;;;;;;;;;;4987331;28;20514;-87
2022/01/20 15:41:04;;;;;;;15.27;3.20;;;;;;;;;;4992666;28;20093;-87
2022/01/20 15:43:31;;;;;;;6.80;2.33;;;;;;;;;;5001401;28;20090;-86
2022/01/20 15:45:58;;;;;;;10.45;1.92;;;;;;;;;;4975642;28;20030;-86
2022/01/20 15:48:27;;;;;;;5.88;2.40;;;;;;;;;;4995539;28;20081;-85
2022/01/20 15:50:53;;;;;;;8.30;2.25;;;;;;;;;;4983843;28;20032;-86
2022/01/20 15:53:18;;;;;;;8.85;3.13;;;;;;;;;;4996072;28;20082;-86
2022/01/20 15:55:44;;;;;;;12.98;3.00;;;;;;;;;;5010588;28;20081;-84
2022/01/20 15:58:10;;;;;;;5.82;2.50;;;;;;;;;;4973177;28;20085;-87
2022/01/20 16:00:36;;;;;;;3.33;2.10;;;;;;;;;;4999379;28;20010;-87
2022/01/20 16:03:06;;;;;;;11.52;2.70;;;;;;;;;;5005035;28;20045;-85
2022/01/20 16:05:32;;;;;;;10.23;2.15;;;;;;;;;;4993067;28;20100;-86
2022/01/20 16:07:58;;;;;;;5.10;2.40;;;;;;;;;;4981267;28;20037;-86
2022/01/20 16:10:23;;;;;;;8.60;2.42;;;;;;;;;;4998568;28;20038;-86
2022/01/20 16:12:49;;;;;;;8.65;2.35;;;;;;;;;;4990531;28;20023;-88
2022/01/20 16:15:15;;;;;;;5.50;2.20;;;;;;;;;;4983609;28;20026;-85
2022/01/20 16:17:41;;;;;;;9.07;2.28;;;;;;;;;;4976223;28;20079;-85
2022/01/20 16:20:07;;;;;;;5.35;2.25;;;;;;;;;;4981185;28;20054;-86
2022/01/20 16:22:33;;;;;;;8.52;1.80;;;;;;;;;;4979788;28;20030;-85
2022/01/20 16:24:59;;;;;;;6.13;1.70;;;;;;;;;;5000394;28;20538;-85
2022/01/20 16:27:25;;;;;;;4.03;1.65;;;;;;;;;;5014843;28;20030;-87
2022/01/20 16:29:51;;;;;;;3.90;1.77;;;;;;;;;;4999791;28;20026;-86
2022/01/20 16:32:18;;;;;;;4.68;1.63;;;;;;;;;;5007880;28;20029;-88
2022/01/20 16:34:43;;;;;;;7.70;2.50;;;;;;;;;;4981146;28;20034;-88
2022/01/20 16:37:10;;;;;;;3.30;1.80;;;;;;;;;;4998266;28;20041;-88
2022/01/20 16:39:36;;;;;;;6.22;2.17;;;;;;;;;;4982193;28;20093;-87
2022/01/20 16:42:02;;;;;;;3.90;1.88;;;;;;;;;;4984535;28;20094;-87
2022/01/20 16:44:28;;;;;;;4.40;2.47;;;;;;;;;;5003732;28;20483;-87
2022/01/20 16:46:54;;;;;;;6.05;2.13;;;;;;;;;;5011892;28;20041;-88
2022/01/20 16:49:20;;;;;;;9.23;2.42;;;;;;;;;;5008506;28;20033;-88
2022/01/20 16:51:46;;;;;;;4.80;2.70;;;;;;;;;;4983815;28;20026;-89
2022/01/20 16:54:12;;;;;;;5.88;2.22;;;;;;;;;;5000843;28;20093;-88
2022/01/20 16:56:38;;;;;;;4.15;2.20;;;;;;;;;;5006852;28;20030;-88
2022/01/20 16:59:07;;;;;;;4.22;2.40;;;;;;;;;;4997436;28;20034;-87
2022/01/20 17:01:32;;;;;;;9.02;2.65;;;;;;;;;;4988248;28;20041;-87
2022/01/20 17:10:42;;;;;;;4.80;2.40;;;;;;;;;;5089960;23;20056;-87
2022/01/20 19:53:34;;;;;;;3.75;1.60;;;;;;;;;;5390308;23;20056;-87
2022/01/20 19:56:00;;;;;;;9.02;2.10;;;;;;;;;;5008947;28;20066;-85
2022/01/20 19:58:25;;;;;;;3.78;1.85;;;;;;;;;;5017432;28;20488;-83
2022/01/20 20:00:51;;;;;;;8.32;2.45;;;;;;;;;;5007046;28;20119;-86
2022/01/20 20:03:17;;;;;;;9.15;2.42;;;;;;;;;;5020162;28;20503;-85
2022/01/20 20:05:44;;;;;;;6.50;2.13;;;;;;;;;;5021170;28;20136;-86
2022/01/20 20:08:11;;;;;;;9.13;2.90;;;;;;;;;;5009070;28;20022;-85
2022/01/20 20:10:37;;;;;;;5.53;2.10;;;;;;;;;;4994015;28;20029;-83
2022/01/20 20:13:04;;;;;;;6.47;2.80;;;;;;;;;;5000820;28;20046;-85
2022/01/20 20:15:30;;;;;;;7.43;2.38;;;;;;;;;;5003136;28;20040;-83
2022/01/20 20:17:56;;;;;;;9.35;2.20;;;;;;;;;;4997334;28;20026;-86
2022/01/20 20:20:22;;;;;;;1.88;1.77;;;;;;;;;;5001858;28;20109;-86
2022/01/20 20:22:48;;;;;;;8.65;2.05;;;;;;;;;;5000757;28;20032;-85
2022/01/20 20:25:15;;;;;;;6.28;2.33;;;;;;;;;;4998324;28;20022;-85
2022/01/20 20:27:41;;;;;;;7.50;1.75;;;;;;;;;;4999151;28;20031;-86
2022/01/20 20:30:07;;;;;;;12.50;2.67;;;;;;;;;;5001179;28;20010;-85
2022/01/20 20:32:33;;;;;;;8.48;2.38;;;;;;;;;;4999750;28;20026;-85
2022/01/20 20:34:58;;;;;;;4.13;2.33;;;;;;;;;;5000924;28;20031;-84
2022/01/20 20:37:24;;;;;;;4.43;1.88;;;;;;;;;;5004449;28;20026;-88
2022/01/20 20:39:51;;;;;;;4.85;2.30;;;;;;;;;;4998644;28;20106;-84
2022/01/20 20:42:16;;;;;;;5.68;2.10;;;;;;;;;;4999925;28;20500;-86
2022/01/20 20:44:42;;;;;;;4.03;2.20;;;;;;;;;;5002204;28;20063;-86
2022/01/20 20:47:08;;;;;;;11.18;2.17;;;;;;;;;;5001077;28;20023;-87
2022/01/20 20:49:35;;;;;;;2.63;2.10;;;;;;;;;;4999037;28;20088;-84
2022/01/20 20:52:01;;;;;;;6.22;2.40;;;;;;;;;;4997406;28;20086;-83
2022/01/20 20:54:27;;;;;;;6.70;2.30;;;;;;;;;;4982443;28;20030;-83
2022/01/20 20:56:53;;;;;;;8.95;2.17;;;;;;;;;;4999228;28;20037;-83
2022/01/20 20:59:19;;;;;;;7.57;2.13;;;;;;;;;;5003611;28;20025;-84
2022/01/20 21:01:46;;;;;;;6.13;2.38;;;;;;;;;;5000036;28;20410;-83
2022/01/20 21:04:13;;;;;;;4.15;2.10;;;;;;;;;;4989958;28;20029;-84
2022/01/20 21:06:38;;;;;;;6.30;2.45;;;;;;;;;;5001007;28;20045;-87
2022/01/20 21:09:04;;;;;;;11.13;2.35;;;;;;;;;;4999575;28;20086;-86
2022/01/20 21:11:29;;;;;;;5.65;1.80;;;;;;;;;;4999212;28;20030;-86
2022/01/20 21:13:56;;;;;;;8.48;2.13;;;;;;;;;;4980917;28;20022;-84
2022/01/20 21:16:22;;;;;;;5.22;2.25;;;;;;;;;;4999684;28;20027;-85